Bulford, United Kingdom
Current Conditions -  °F | °C
As of 11:50 AM on Sunday 21 Dec 2014 (Local Time) from EGDM Reporting Station
Broken Clouds Broken Clouds  
Wind Chill: 42°   Ceiling: 1700
Heat Index: 48°   Visibility: 6mi
Dew Point: 41°   Wind: 16mph
Humidity: 76%   Direction: 230°SW
Pressure: 30.36"   Gusts: NA
Location:  51.19°N, 1.76°W
Report Text: EGDM 211150Z AUTO 23014KT 9999 BKN017/// 09/05 Q1028
Loading
Personal Weather Stations






























Interactive Weather Map New forecast layout! Learn more

10-Day Weather Forecast

Advertisements
Track Severe Weather on mobile